<?xml version="1.0" encoding="UTF-8" standalone="no" ?>
<gpx xmlns="http://www.topografix.com/GPX/1/1" xmlns:xsi="http://www.w3.org/2001/XMLSchema-instance" xsi:schemaLocation="http://www.topografix.com/GPX/1/1 http://www.topografix.com/GPX/1/1/gpx.xsd" version="1.1" creator="VisuGPX - https://www.visugpx.com">
  <metadata>
    <name>sejour gov alsace</name>
  </metadata>
  <wpt lat="48.06424" lon="7.02221">
    <ele>1132</ele>
    <name><![CDATA[Col de la Schlucht]]></name>
    <desc><![CDATA[Parking]]></desc>
    <cmt><![CDATA[Parking]]></cmt>
  </wpt>
  <wpt lat="48.04158" lon="7.29947">
    <ele>223</ele>
    <name><![CDATA[Eguisheim]]></name>
  </wpt>
  <wpt lat="48.1793" lon="7.31018">
    <ele>275</ele>
    <name><![CDATA[Hunawihr]]></name>
  </wpt>
  <wpt lat="48.13923" lon="7.25933">
    <ele>251</ele>
    <name><![CDATA[Kaysersberg]]></name>
  </wpt>
  <wpt lat="48.14587" lon="7.25086">
    <ele>290</ele>
    <name><![CDATA[Kaysersberg-CCAS]]></name>
    <desc><![CDATA[3 Rue Rene le Guen]]></desc>
    <cmt><![CDATA[3 Rue Rene le Guen]]></cmt>
  </wpt>
  <wpt lat="48.14668" lon="7.25549">
    <ele>261</ele>
    <name><![CDATA[Kaysersberg-Salle de Sport]]></name>
  </wpt>
  <wpt lat="48.11261" lon="7.10019">
    <ele>958</ele>
    <name><![CDATA[Lac Noir]]></name>
  </wpt>
  <wpt lat="48.17" lon="7.12576">
    <ele>667</ele>
    <name><![CDATA[Le Bonhomme]]></name>
  </wpt>
  <wpt lat="48.05292" lon="6.9482">
    <ele>918</ele>
    <name><![CDATA[Lispach]]></name>
  </wpt>
  <wpt lat="48.16758" lon="7.29424">
    <ele>321</ele>
    <name><![CDATA[Riquewihr]]></name>
  </wpt>
  <wpt lat="48.23274" lon="7.36606">
    <ele>254</ele>
    <name><![CDATA[St-Hippolyte]]></name>
  </wpt>
  <wpt lat="48.22694" lon="7.30439">
    <ele>466</ele>
    <name><![CDATA[Thannenkirch]]></name>
  </wpt>
  <trk>
    <name><![CDATA[Le Bonhomme-Belvédère Haute Pierre-Faurupt-Haicot-Col Bagenelles (17,3 km-600 m)]]></name>
    <trkseg>
      <trkpt lat="48.17" lon="7.12576">
        <ele>667</ele>
        <time>2018-05-08T08:26:21Z</time>
      </trkpt>
      <trkpt lat="48.16999" lon="7.12607">
        <ele>666</ele>
        <time>2021-12-19T15:51:19Z</time>
      </trkpt>
      <trkpt lat="48.1704" lon="7.12684">
        <ele>677</ele>
        <time>2021-12-19T15:51:24Z</time>
      </trkpt>
      <trkpt lat="48.17099" lon="7.12845">
        <ele>677</ele>
        <time>2021-12-19T15:51:29Z</time>
      </trkpt>
      <trkpt lat="48.17132" lon="7.12901">
        <ele>680</ele>
        <time>2021-12-19T15:51:34Z</time>
      </trkpt>
      <trkpt lat="48.17222" lon="7.12923">
        <ele>699</ele>
        <time>2021-12-19T15:51:39Z</time>
      </trkpt>
      <trkpt lat="48.1739" lon="7.13003">
        <ele>715</ele>
        <time>2021-12-19T15:51:44Z</time>
      </trkpt>
      <trkpt lat="48.17329" lon="7.13126">
        <ele>728</ele>
        <time>2021-12-19T15:51:49Z</time>
      </trkpt>
      <trkpt lat="48.17299" lon="7.13229">
        <ele>741</ele>
        <time>2021-12-19T15:51:54Z</time>
      </trkpt>
      <trkpt lat="48.17281" lon="7.13359">
        <ele>752</ele>
        <time>2021-12-19T15:51:59Z</time>
      </trkpt>
      <trkpt lat="48.17307" lon="7.1342">
        <ele>764</ele>
        <time>2021-12-19T15:52:04Z</time>
      </trkpt>
      <trkpt lat="48.17336" lon="7.13539">
        <ele>767</ele>
        <time>2021-12-19T15:52:09Z</time>
      </trkpt>
      <trkpt lat="48.17345" lon="7.13609">
        <ele>776</ele>
        <time>2021-12-19T15:52:14Z</time>
      </trkpt>
      <trkpt lat="48.1733" lon="7.13698">
        <ele>779</ele>
        <time>2021-12-19T15:52:19Z</time>
      </trkpt>
      <trkpt lat="48.17294" lon="7.13804">
        <ele>786</ele>
        <time>2021-12-19T15:52:24Z</time>
      </trkpt>
      <trkpt lat="48.17263" lon="7.13903">
        <ele>796</ele>
        <time>2021-12-19T15:52:29Z</time>
      </trkpt>
      <trkpt lat="48.17289" lon="7.139">
        <ele>801</ele>
        <time>2021-12-19T15:52:34Z</time>
      </trkpt>
      <trkpt lat="48.17307" lon="7.13884">
        <ele>803</ele>
        <time>2021-12-19T15:52:39Z</time>
      </trkpt>
      <trkpt lat="48.17329" lon="7.13893">
        <ele>809</ele>
        <time>2021-12-19T15:52:44Z</time>
      </trkpt>
      <trkpt lat="48.17288" lon="7.13987">
        <ele>807</ele>
        <time>2018-05-08T08:27:22Z</time>
      </trkpt>
      <trkpt lat="48.17266" lon="7.13997">
        <ele>803</ele>
        <time>2018-05-08T08:29:32Z</time>
      </trkpt>
      <trkpt lat="48.17289" lon="7.13989">
        <ele>807</ele>
        <time>2018-05-08T08:31:32Z</time>
      </trkpt>
      <trkpt lat="48.1731" lon="7.13945">
        <ele>809</ele>
        <time>2018-05-08T08:32:13Z</time>
      </trkpt>
      <trkpt lat="48.17333" lon="7.13894">
        <ele>810</ele>
        <time>2018-05-08T08:33:11Z</time>
      </trkpt>
      <trkpt lat="48.17364" lon="7.1386">
        <ele>815</ele>
        <time>2018-05-08T08:33:51Z</time>
      </trkpt>
      <trkpt lat="48.17411" lon="7.13779">
        <ele>820</ele>
        <time>2018-05-08T08:34:53Z</time>
      </trkpt>
      <trkpt lat="48.17442" lon="7.13685">
        <ele>823</ele>
        <time>2018-05-08T08:35:47Z</time>
      </trkpt>
      <trkpt lat="48.17471" lon="7.13582">
        <ele>825</ele>
        <time>2018-05-08T08:36:43Z</time>
      </trkpt>
      <trkpt lat="48.17481" lon="7.13384">
        <ele>823</ele>
        <time>2018-05-08T08:38:19Z</time>
      </trkpt>
      <trkpt lat="48.17507" lon="7.13361">
        <ele>826</ele>
        <time>2018-05-08T08:39:19Z</time>
      </trkpt>
      <trkpt lat="48.17571" lon="7.13363">
        <ele>832</ele>
        <time>2021-12-19T15:53:44Z</time>
      </trkpt>
      <trkpt lat="48.17637" lon="7.13346">
        <ele>829</ele>
        <time>2018-05-08T08:40:55Z</time>
      </trkpt>
      <trkpt lat="48.17739" lon="7.13313">
        <ele>828</ele>
        <time>2021-12-19T15:53:54Z</time>
      </trkpt>
      <trkpt lat="48.17843" lon="7.13239">
        <ele>816</ele>
        <time>2018-05-08T08:44:12Z</time>
      </trkpt>
      <trkpt lat="48.17899" lon="7.13254">
        <ele>815</ele>
        <time>2018-05-08T08:44:31Z</time>
      </trkpt>
      <trkpt lat="48.17979" lon="7.13341">
        <ele>815</ele>
        <time>2018-05-08T08:45:26Z</time>
      </trkpt>
      <trkpt lat="48.18099" lon="7.13579">
        <ele>835</ele>
        <time>2018-05-08T08:49:15Z</time>
      </trkpt>
      <trkpt lat="48.18173" lon="7.13805">
        <ele>848</ele>
        <time>2018-05-08T08:51:52Z</time>
      </trkpt>
      <trkpt lat="48.18232" lon="7.13897">
        <ele>853</ele>
        <time>2018-05-08T08:52:46Z</time>
      </trkpt>
      <trkpt lat="48.18305" lon="7.13952">
        <ele>869</ele>
        <time>2018-05-08T08:53:41Z</time>
      </trkpt>
      <trkpt lat="48.18388" lon="7.13873">
        <ele>866</ele>
        <time>2018-05-08T08:56:07Z</time>
      </trkpt>
      <trkpt lat="48.18519" lon="7.13838">
        <ele>875</ele>
        <time>2021-12-19T15:54:39Z</time>
      </trkpt>
      <trkpt lat="48.18588" lon="7.13856">
        <ele>885</ele>
        <time>2021-12-19T15:54:44Z</time>
      </trkpt>
      <trkpt lat="48.1864" lon="7.13847">
        <ele>893</ele>
        <time>2021-12-19T15:54:49Z</time>
      </trkpt>
      <trkpt lat="48.18656" lon="7.13818">
        <ele>899</ele>
        <time>2018-05-08T09:00:41Z</time>
      </trkpt>
      <trkpt lat="48.18586" lon="7.13718">
        <ele>904</ele>
        <time>2018-05-08T09:00:58Z</time>
      </trkpt>
      <trkpt lat="48.18537" lon="7.13626">
        <ele>912</ele>
        <time>2021-12-19T15:55:04Z</time>
      </trkpt>
      <trkpt lat="48.18475" lon="7.13568">
        <ele>904</ele>
        <time>2018-05-08T09:02:33Z</time>
      </trkpt>
      <trkpt lat="48.18433" lon="7.13411">
        <ele>894</ele>
        <time>2018-05-08T09:05:12Z</time>
      </trkpt>
      <trkpt lat="48.18407" lon="7.13257">
        <ele>887</ele>
        <time>2018-05-08T09:05:46Z</time>
      </trkpt>
      <trkpt lat="48.18408" lon="7.13199">
        <ele>882</ele>
        <time>2021-12-19T15:55:24Z</time>
      </trkpt>
      <trkpt lat="48.18449" lon="7.13164">
        <ele>882</ele>
        <time>2021-12-19T15:55:29Z</time>
      </trkpt>
      <trkpt lat="48.18503" lon="7.13169">
        <ele>887</ele>
        <time>2018-05-08T09:08:51Z</time>
      </trkpt>
      <trkpt lat="48.18601" lon="7.13188">
        <ele>902</ele>
        <time>2021-12-19T15:55:39Z</time>
      </trkpt>
      <trkpt lat="48.18741" lon="7.13167">
        <ele>923</ele>
        <time>2021-12-19T15:55:44Z</time>
      </trkpt>
      <trkpt lat="48.18897" lon="7.13199">
        <ele>926</ele>
        <time>2021-12-19T15:55:49Z</time>
      </trkpt>
      <trkpt lat="48.19013" lon="7.13306">
        <ele>950</ele>
        <time>2018-05-08T09:19:33Z</time>
      </trkpt>
      <trkpt lat="48.19055" lon="7.13268">
        <ele>946</ele>
        <time>2021-12-19T15:55:59Z</time>
      </trkpt>
      <trkpt lat="48.19039" lon="7.13143">
        <ele>932</ele>
        <time>2021-12-19T15:56:04Z</time>
      </trkpt>
      <trkpt lat="48.19055" lon="7.13019">
        <ele>944</ele>
        <time>2018-05-08T09:21:58Z</time>
      </trkpt>
      <trkpt lat="48.19027" lon="7.12924">
        <ele>951</ele>
        <time>2018-05-08T09:23:00Z</time>
      </trkpt>
      <trkpt lat="48.1892" lon="7.12845">
        <ele>942</ele>
        <time>2018-05-08T09:25:11Z</time>
      </trkpt>
      <trkpt lat="48.18886" lon="7.1263">
        <ele>963</ele>
        <time>2021-12-19T15:56:24Z</time>
      </trkpt>
      <trkpt lat="48.18801" lon="7.12508">
        <ele>958</ele>
        <time>2018-05-08T09:27:47Z</time>
      </trkpt>
      <trkpt lat="48.188" lon="7.12412">
        <ele>962</ele>
        <time>2021-12-19T15:56:34Z</time>
      </trkpt>
      <trkpt lat="48.18829" lon="7.12321">
        <ele>970</ele>
        <time>2021-12-19T15:56:39Z</time>
      </trkpt>
      <trkpt lat="48.18852" lon="7.12229">
        <ele>977</ele>
        <time>2021-12-19T15:56:44Z</time>
      </trkpt>
      <trkpt lat="48.18839" lon="7.12124">
        <ele>975</ele>
        <time>2021-12-19T15:56:49Z</time>
      </trkpt>
      <trkpt lat="48.18862" lon="7.1206">
        <ele>978</ele>
        <time>2018-05-08T09:32:43Z</time>
      </trkpt>
      <trkpt lat="48.18864" lon="7.12096">
        <ele>981</ele>
        <time>2018-05-08T09:38:28Z</time>
      </trkpt>
      <trkpt lat="48.18907" lon="7.12146">
        <ele>993</ele>
        <time>2021-12-19T15:57:04Z</time>
      </trkpt>
      <trkpt lat="48.18937" lon="7.12326">
        <ele>1004</ele>
        <time>2021-12-19T15:57:09Z</time>
      </trkpt>
      <trkpt lat="48.19017" lon="7.1245">
        <ele>1018</ele>
        <time>2021-12-19T15:57:14Z</time>
      </trkpt>
      <trkpt lat="48.19073" lon="7.12587">
        <ele>1028</ele>
        <time>2021-12-19T15:57:19Z</time>
      </trkpt>
      <trkpt lat="48.19138" lon="7.12686">
        <ele>1032</ele>
        <time>2021-12-19T15:57:24Z</time>
      </trkpt>
      <trkpt lat="48.19209" lon="7.12718">
        <ele>1030</ele>
        <time>2021-12-19T15:57:29Z</time>
      </trkpt>
      <trkpt lat="48.19306" lon="7.12882">
        <ele>1033</ele>
        <time>2021-12-19T15:57:34Z</time>
      </trkpt>
      <trkpt lat="48.1947" lon="7.13424">
        <ele>1054</ele>
        <time>2021-12-19T15:57:39Z</time>
      </trkpt>
      <trkpt lat="48.19483" lon="7.13654">
        <ele>1075</ele>
        <time>2018-05-08T10:46:56Z</time>
      </trkpt>
      <trkpt lat="48.1966" lon="7.1392">
        <ele>1062</ele>
        <time>2018-05-08T10:50:45Z</time>
      </trkpt>
      <trkpt lat="48.19864" lon="7.13872">
        <ele>1032</ele>
        <time>2018-05-08T10:56:06Z</time>
      </trkpt>
      <trkpt lat="48.19911" lon="7.13834">
        <ele>1030</ele>
        <time>2018-05-08T10:58:19Z</time>
      </trkpt>
      <trkpt lat="48.19769" lon="7.13775">
        <ele>1024</ele>
        <time>2018-05-08T10:58:47Z</time>
      </trkpt>
      <trkpt lat="48.19991" lon="7.13659">
        <ele>987</ele>
        <time>2018-05-08T10:59:35Z</time>
      </trkpt>
      <trkpt lat="48.2004" lon="7.1366">
        <ele>979</ele>
        <time>2021-12-19T15:58:19Z</time>
      </trkpt>
      <trkpt lat="48.20062" lon="7.13723">
        <ele>983</ele>
        <time>2018-05-08T11:06:01Z</time>
      </trkpt>
      <trkpt lat="48.20086" lon="7.1365">
        <ele>967</ele>
        <time>2018-05-08T11:06:23Z</time>
      </trkpt>
      <trkpt lat="48.20016" lon="7.13572">
        <ele>956</ele>
        <time>2018-05-08T11:09:30Z</time>
      </trkpt>
      <trkpt lat="48.19874" lon="7.13624">
        <ele>962</ele>
        <time>2021-12-19T15:58:39Z</time>
      </trkpt>
      <trkpt lat="48.1973" lon="7.13605">
        <ele>965</ele>
        <time>2021-12-19T15:58:44Z</time>
      </trkpt>
      <trkpt lat="48.1973" lon="7.13444">
        <ele>943</ele>
        <time>2021-12-19T15:58:49Z</time>
      </trkpt>
      <trkpt lat="48.19655" lon="7.13347">
        <ele>971</ele>
        <time>2021-12-19T15:58:54Z</time>
      </trkpt>
      <trkpt lat="48.19693" lon="7.13255">
        <ele>950</ele>
        <time>2018-05-08T11:19:41Z</time>
      </trkpt>
      <trkpt lat="48.19693" lon="7.13107">
        <ele>945</ele>
        <time>2018-05-08T11:19:55Z</time>
      </trkpt>
      <trkpt lat="48.19534" lon="7.12957">
        <ele>957</ele>
        <time>2018-05-08T11:21:09Z</time>
      </trkpt>
      <trkpt lat="48.1958" lon="7.12794">
        <ele>928</ele>
        <time>2021-12-19T15:59:14Z</time>
      </trkpt>
      <trkpt lat="48.19505" lon="7.1265">
        <ele>938</ele>
        <time>2018-05-08T11:26:23Z</time>
      </trkpt>
      <trkpt lat="48.19347" lon="7.12506">
        <ele>944</ele>
        <time>2018-05-08T11:27:02Z</time>
      </trkpt>
      <trkpt lat="48.19325" lon="7.1242">
        <ele>952</ele>
        <time>2018-05-08T11:28:04Z</time>
      </trkpt>
      <trkpt lat="48.19421" lon="7.12264">
        <ele>927</ele>
        <time>2018-05-08T11:28:36Z</time>
      </trkpt>
      <trkpt lat="48.19412" lon="7.12122">
        <ele>934</ele>
        <time>2021-12-19T15:59:39Z</time>
      </trkpt>
      <trkpt lat="48.19361" lon="7.11888">
        <ele>927</ele>
        <time>2021-12-19T15:59:44Z</time>
      </trkpt>
      <trkpt lat="48.19281" lon="7.11764">
        <ele>928</ele>
        <time>2018-05-08T11:33:33Z</time>
      </trkpt>
      <trkpt lat="48.19259" lon="7.11436">
        <ele>906</ele>
        <time>2018-05-08T11:37:42Z</time>
      </trkpt>
      <trkpt lat="48.19244" lon="7.11382">
        <ele>904</ele>
        <time>2018-05-08T11:38:02Z</time>
      </trkpt>
      <trkpt lat="48.19202" lon="7.11391">
        <ele>899</ele>
        <time>2021-12-19T16:00:04Z</time>
      </trkpt>
      <trkpt lat="48.19111" lon="7.11474">
        <ele>891</ele>
        <time>2021-12-19T16:00:09Z</time>
      </trkpt>
      <trkpt lat="48.1907" lon="7.11586">
        <ele>888</ele>
        <time>2021-12-19T16:00:14Z</time>
      </trkpt>
      <trkpt lat="48.19052" lon="7.1171">
        <ele>890</ele>
        <time>2021-12-19T16:00:19Z</time>
      </trkpt>
      <trkpt lat="48.18995" lon="7.11766">
        <ele>886</ele>
        <time>2018-05-08T11:43:23Z</time>
      </trkpt>
      <trkpt lat="48.18967" lon="7.11751">
        <ele>888</ele>
        <time>2018-05-08T11:43:47Z</time>
      </trkpt>
      <trkpt lat="48.18859" lon="7.11651">
        <ele>894</ele>
        <time>2018-05-08T11:46:15Z</time>
      </trkpt>
      <trkpt lat="48.18776" lon="7.11523">
        <ele>894</ele>
        <time>2018-05-08T11:48:20Z</time>
      </trkpt>
      <trkpt lat="48.18713" lon="7.11504">
        <ele>899</ele>
        <time>2021-12-19T16:00:44Z</time>
      </trkpt>
      <trkpt lat="48.18592" lon="7.11536">
        <ele>905</ele>
        <time>2021-12-19T16:00:49Z</time>
      </trkpt>
      <trkpt lat="48.18522" lon="7.11521">
        <ele>903</ele>
        <time>2018-05-08T11:53:14Z</time>
      </trkpt>
      <trkpt lat="48.18439" lon="7.11579">
        <ele>902</ele>
        <time>2018-05-08T11:53:35Z</time>
      </trkpt>
      <trkpt lat="48.18386" lon="7.11731">
        <ele>906</ele>
        <time>2021-12-19T16:01:04Z</time>
      </trkpt>
      <trkpt lat="48.18369" lon="7.11819">
        <ele>908</ele>
        <time>2021-12-19T16:01:09Z</time>
      </trkpt>
      <trkpt lat="48.18333" lon="7.11883">
        <ele>898</ele>
        <time>2018-05-08T11:56:08Z</time>
      </trkpt>
      <trkpt lat="48.18371" lon="7.1198">
        <ele>897</ele>
        <time>2018-05-08T11:56:51Z</time>
      </trkpt>
      <trkpt lat="48.18472" lon="7.12081">
        <ele>892</ele>
        <time>2018-05-08T11:58:08Z</time>
      </trkpt>
      <trkpt lat="48.1861" lon="7.12184">
        <ele>893</ele>
        <time>2018-05-08T12:00:35Z</time>
      </trkpt>
      <trkpt lat="48.18647" lon="7.12237">
        <ele>896</ele>
        <time>2018-05-08T12:01:27Z</time>
      </trkpt>
      <trkpt lat="48.18642" lon="7.12305">
        <ele>892</ele>
        <time>2018-05-08T12:02:02Z</time>
      </trkpt>
      <trkpt lat="48.18615" lon="7.12583">
        <ele>881</ele>
        <time>2018-05-08T12:02:20Z</time>
      </trkpt>
      <trkpt lat="48.18643" lon="7.12746">
        <ele>871</ele>
        <time>2021-12-19T16:01:49Z</time>
      </trkpt>
      <trkpt lat="48.18756" lon="7.12819">
        <ele>878</ele>
        <time>2021-12-19T16:01:54Z</time>
      </trkpt>
      <trkpt lat="48.18835" lon="7.13007">
        <ele>879</ele>
        <time>2018-05-08T12:09:28Z</time>
      </trkpt>
      <trkpt lat="48.18775" lon="7.1304">
        <ele>883</ele>
        <time>2018-05-08T12:11:02Z</time>
      </trkpt>
      <trkpt lat="48.18705" lon="7.13025">
        <ele>872</ele>
        <time>2021-12-19T16:02:09Z</time>
      </trkpt>
      <trkpt lat="48.18633" lon="7.1307">
        <ele>875</ele>
        <time>2018-05-08T12:12:31Z</time>
      </trkpt>
      <trkpt lat="48.18507" lon="7.13171">
        <ele>888</ele>
        <time>2018-05-08T12:17:45Z</time>
      </trkpt>
      <trkpt lat="48.18449" lon="7.13158">
        <ele>881</ele>
        <time>2021-12-19T16:02:24Z</time>
      </trkpt>
      <trkpt lat="48.18403" lon="7.13198">
        <ele>881</ele>
        <time>2018-05-08T12:19:39Z</time>
      </trkpt>
      <trkpt lat="48.1841" lon="7.13256">
        <ele>888</ele>
        <time>2018-05-08T12:20:19Z</time>
      </trkpt>
      <trkpt lat="48.18436" lon="7.13408">
        <ele>895</ele>
        <time>2021-12-19T16:02:39Z</time>
      </trkpt>
      <trkpt lat="48.18477" lon="7.13565">
        <ele>905</ele>
        <time>2018-05-08T12:22:34Z</time>
      </trkpt>
      <trkpt lat="48.1854" lon="7.13622">
        <ele>914</ele>
        <time>2018-05-08T12:22:49Z</time>
      </trkpt>
      <trkpt lat="48.18591" lon="7.13713">
        <ele>907</ele>
        <time>2018-05-08T12:26:21Z</time>
      </trkpt>
      <trkpt lat="48.18663" lon="7.1382">
        <ele>900</ele>
        <time>2018-05-08T12:26:34Z</time>
      </trkpt>
      <trkpt lat="48.18645" lon="7.13849">
        <ele>894</ele>
        <time>2021-12-19T16:03:04Z</time>
      </trkpt>
      <trkpt lat="48.18586" lon="7.13863">
        <ele>886</ele>
        <time>2021-12-19T16:03:09Z</time>
      </trkpt>
      <trkpt lat="48.18526" lon="7.13838">
        <ele>875</ele>
        <time>2021-12-19T16:03:14Z</time>
      </trkpt>
      <trkpt lat="48.18389" lon="7.13874">
        <ele>867</ele>
        <time>2021-12-19T16:03:19Z</time>
      </trkpt>
      <trkpt lat="48.18305" lon="7.13962">
        <ele>871</ele>
        <time>2018-05-08T12:32:55Z</time>
      </trkpt>
      <trkpt lat="48.18231" lon="7.13899">
        <ele>853</ele>
        <time>2018-05-08T12:35:00Z</time>
      </trkpt>
      <trkpt lat="48.1817" lon="7.13803">
        <ele>848</ele>
        <time>2018-05-08T12:35:16Z</time>
      </trkpt>
      <trkpt lat="48.18094" lon="7.13579">
        <ele>837</ele>
        <time>2018-05-08T12:38:29Z</time>
      </trkpt>
      <trkpt lat="48.17979" lon="7.13338">
        <ele>814</ele>
        <time>2021-12-19T16:03:44Z</time>
      </trkpt>
      <trkpt lat="48.17946" lon="7.13257">
        <ele>808</ele>
        <time>2018-05-08T12:42:37Z</time>
      </trkpt>
      <trkpt lat="48.17916" lon="7.13171">
        <ele>791</ele>
        <time>2018-05-08T12:42:58Z</time>
      </trkpt>
      <trkpt lat="48.17878" lon="7.13107">
        <ele>777</ele>
        <time>2018-05-08T12:44:21Z</time>
      </trkpt>
      <trkpt lat="48.17851" lon="7.13086">
        <ele>772</ele>
        <time>2018-05-08T12:44:47Z</time>
      </trkpt>
      <trkpt lat="48.17803" lon="7.13118">
        <ele>781</ele>
        <time>2018-05-08T12:45:18Z</time>
      </trkpt>
      <trkpt lat="48.17753" lon="7.13102">
        <ele>776</ele>
        <time>2018-05-08T12:46:43Z</time>
      </trkpt>
      <trkpt lat="48.17739" lon="7.13104">
        <ele>774</ele>
        <time>2018-05-08T12:47:06Z</time>
      </trkpt>
      <trkpt lat="48.17696" lon="7.13114">
        <ele>767</ele>
        <time>2018-05-08T12:47:36Z</time>
      </trkpt>
      <trkpt lat="48.17647" lon="7.13123">
        <ele>760</ele>
        <time>2018-05-08T12:47:54Z</time>
      </trkpt>
      <trkpt lat="48.17586" lon="7.1312">
        <ele>750</ele>
        <time>2018-05-08T12:48:11Z</time>
      </trkpt>
      <trkpt lat="48.17526" lon="7.13087">
        <ele>740</ele>
        <time>2018-05-08T12:49:43Z</time>
      </trkpt>
      <trkpt lat="48.1747" lon="7.13052">
        <ele>735</ele>
        <time>2018-05-08T12:50:33Z</time>
      </trkpt>
      <trkpt lat="48.17449" lon="7.13051">
        <ele>734</ele>
        <time>2018-05-08T12:50:52Z</time>
      </trkpt>
      <trkpt lat="48.17428" lon="7.1302">
        <ele>727</ele>
        <time>2018-05-08T12:51:11Z</time>
      </trkpt>
      <trkpt lat="48.17391" lon="7.12997">
        <ele>716</ele>
        <time>2018-05-08T12:51:48Z</time>
      </trkpt>
      <trkpt lat="48.1722" lon="7.12926">
        <ele>698</ele>
        <time>2018-05-08T12:54:54Z</time>
      </trkpt>
      <trkpt lat="48.17129" lon="7.12901">
        <ele>679</ele>
        <time>2018-05-08T12:55:22Z</time>
      </trkpt>
      <trkpt lat="48.17099" lon="7.12849">
        <ele>677</ele>
        <time>2018-05-08T12:56:17Z</time>
      </trkpt>
      <trkpt lat="48.17041" lon="7.12682">
        <ele>678</ele>
        <time>2018-05-08T12:58:05Z</time>
      </trkpt>
      <trkpt lat="48.17014" lon="7.12643">
        <ele>670</ele>
        <time>2018-05-08T12:58:24Z</time>
      </trkpt>
      <trkpt lat="48.17001" lon="7.12607">
        <ele>667</ele>
        <time>2018-05-08T12:58:46Z</time>
      </trkpt>
      <trkpt lat="48.17002" lon="7.12576">
        <ele>668</ele>
        <time>2018-05-08T12:59:23Z</time>
      </trkpt>
    </trkseg>
  </trk>
</gpx>